Peshtigo, WI

5:46 AM CDT on May 28, 2015 (GMT -0500)
Tyco Fire Protection | | Change Station
CLOSE
Current Station
Personal Weather Station
Location: Marinette, WI
Elevation: 617 ft
Nearby Weather Stations

Elev 617 ft 45.08 °N, 87.64 °W | Updated 1 minute ago

Overcast
Overcast
52.2 °F
Feels Like 52.2 °F
N
1.0
Wind Variable Wind from South
Gusts 13.0 mph

Today
High -- | Low -- °F
--% Chance of Precip.
Yesterday
High -- | Low -- °F
Precip. -- in
5:10 AM 8:27 PM
Waxing Gibbous, 75% visible
Pressure 30.13 in
Visibility 3.0 miles
Clouds Clear
Dew Point 51 °F
Humidity 96%
Rainfall 0.00 in
Snow Depth Not available.
UV 0 out of 12
Pollen 2.70 out of 12
Air Quality Not available.
Flu Activity Sporadic
METAR KMNM 281035Z AUTO 26003KT 3SM CLR 12/10 A3013 RMK AO1

More Conditions Fewer Conditions

Pressure 30.13 in
Visibility 3.0 miles
Clouds Clear
Dew Point 51 °F
Humidity 96%
Rainfall 0.00 in
Snow Depth Not available.
UV 0 out of 12
Pollen 2.70 out of 12
Air Quality Not available.
Flu Activity Sporadic
METAR KMNM 281035Z AUTO 26003KT 3SM CLR 12/10 A3013 RMK AO1

More Conditions Fewer Conditions

10-Day Weather Forecast

Almanac

Astronomy

May. 28, 2015 Rise Set
Actual Time
Civil Twilight
Nautical Twilight
Astronomical Twilight
Moon
Length of Visible Light
Length of Day
Tomorrow will be .
, % of the Moon is Illuminated

Today's Extremes

State Highs State Lows

Community

WunderPhotos

Upload Photos

1,824,946 photos uploaded!

WunderBlogs® & News

Nearby

Air Quality

  Air Quality AQ Index Pollutant
Not available.

Snow Depth

Station Depth Elevation

Earthquake Activity

City Distance Mag. Time & Date
Minimum magnitude displayed is 2.5.

Coastal Water Temperatures

Place Temperature

Stations

Nearby Weather Stations

Station Location Temp. Windchill Dew Point Humidity Wind Precip. Elev Updated Type